Time;durP1;ratioP1;P1;durP2;ratioP2;P2;SDS_P1;SDS_P2;PMS_P1;PMS_P2;Temp;Humidity;BMP_temperature;BMP_pressure;BME280_temperature;BME280_humidity;BME280_pressure;Samples;Min_cycle;Max_cycle;Signal;HPM_P1;HPM_P2
2022/10/01 00:00:03;;;;;;;8.45;2.53;;;;;;;21.87;53.01;100652.38;5013291;28;20034;-45
2022/10/01 00:02:29;;;;;;;9.80;2.45;;;;;;;21.62;53.71;100650.69;5013050;28;20038;-45
2022/10/01 00:04:55;;;;;;;9.23;2.15;;;;;;;21.49;54.55;100645.91;5013930;28;20103;-45
2022/10/01 00:07:22;;;;;;;6.10;1.95;;;;;;;21.33;55.16;100648.72;5013069;28;20117;-45
2022/10/01 00:09:48;;;;;;;7.55;2.88;;;;;;;21.23;56.61;100656.91;5014083;28;20054;-45
2022/10/01 00:12:15;;;;;;;6.25;2.08;;;;;;;21.17;56.28;100655.31;5011941;28;20069;-48
2022/10/01 00:14:42;;;;;;;9.02;2.25;;;;;;;21.29;55.95;100646.81;5014248;28;20080;-46
2022/10/01 00:17:08;;;;;;;6.00;2.47;;;;;;;20.99;56.43;100643.16;5011723;28;20030;-44
2022/10/01 00:19:34;;;;;;;7.43;2.42;;;;;;;20.76;56.76;100649.25;5011767;28;20029;-43
2022/10/01 00:22:00;;;;;;;4.75;1.85;;;;;;;20.76;57.37;100649.25;5012713;28;20145;-47
2022/10/01 00:24:27;;;;;;;3.83;1.98;;;;;;;20.67;57.12;100643.56;5010463;28;20076;-45
2022/10/01 00:26:53;;;;;;;10.50;2.15;;;;;;;20.43;56.83;100645.25;4997260;28;20177;-47
2022/10/01 00:29:19;;;;;;;4.82;2.20;;;;;;;20.34;57.32;100657.78;5013678;28;20073;-48
2022/10/01 00:31:45;;;;;;;7.00;2.40;;;;;;;20.22;59.04;100650.75;5004283;28;20033;-47
2022/10/01 00:34:14;;;;;;;7.57;2.08;;;;;;;19.89;58.90;100643.19;5012913;28;20120;-47
2022/10/01 00:36:41;;;;;;;9.15;2.08;;;;;;;19.99;59.50;100643.19;5011586;28;20042;-47
2022/10/01 00:39:09;;;;;;;6.78;2.40;;;;;;;19.71;60.92;100650.78;5013352;28;20026;-44
2022/10/01 00:41:35;;;;;;;4.80;2.10;;;;;;;19.67;61.03;100648.88;5010840;28;20088;-47
2022/10/01 00:44:22;;;;;;;6.28;2.28;;;;;;;19.41;62.15;100653.44;5006543;28;20475;-44
2022/10/01 00:46:49;;;;;;;8.10;2.63;;;;;;;19.34;62.16;100651.00;5010996;28;20034;-46
2022/10/01 00:49:20;;;;;;;7.40;2.45;;;;;;;19.44;61.86;100644.78;5006370;28;20438;-51
2022/10/01 00:51:50;;;;;;;7.00;2.85;;;;;;;19.31;62.85;100645.28;5017709;28;20030;-51
2022/10/01 00:54:33;;;;;;;7.78;2.58;;;;;;;19.36;62.57;100653.44;5013939;28;20034;-48
2022/10/01 00:57:01;;;;;;;7.88;2.63;;;;;;;19.24;63.15;100656.38;5015549;28;20050;-49
2022/10/01 00:59:29;;;;;;;9.63;3.33;;;;;;;19.14;63.10;100661.78;5008838;28;20053;-45
2022/10/01 01:01:56;;;;;;;7.45;2.63;;;;;;;18.72;64.26;100666.25;5002687;28;20037;-44
2022/10/01 01:04:22;;;;;;;7.70;3.00;;;;;;;18.82;64.41;100657.34;5009638;28;20038;-44
2022/10/01 01:06:56;;;;;;;6.45;2.20;;;;;;;18.65;65.30;100664.81;5002206;28;20065;-44
2022/10/01 01:09:36;;;;;;;8.02;2.97;;;;;;;18.66;65.74;100661.88;5012425;28;20382;-43
2022/10/01 01:12:26;;;;;;;8.05;2.90;;;;;;;18.49;66.43;100661.25;5012834;28;20030;-43
2022/10/01 01:15:07;;;;;;;6.05;2.47;;;;;;;18.40;66.75;100651.97;5012948;28;20026;-44
2022/10/01 01:17:58;;;;;;;5.00;2.63;;;;;;;18.09;67.44;100661.78;5013269;28;20041;-43
2022/10/01 01:20:30;;;;;;;4.05;2.60;;;;;;;17.98;67.89;100669.00;5011403;28;20065;-44
2022/10/01 01:23:17;;;;;;;5.63;2.85;;;;;;;17.89;67.97;100667.88;5012965;28;20034;-43
2022/10/01 01:26:15;;;;;;;7.82;3.22;;;;;;;17.88;68.10;100667.06;5012768;28;20083;-45
2022/10/01 01:28:47;;;;;;;8.05;2.50;;;;;;;17.78;68.76;100664.25;5012802;28;20041;-43
2022/10/01 01:31:23;;;;;;;5.82;3.03;;;;;;;17.61;69.57;100666.25;5012456;28;20030;-44
2022/10/01 01:33:54;;;;;;;8.18;3.35;;;;;;;17.79;68.87;100673.19;5012553;28;20509;-42
2022/10/01 01:36:30;;;;;;;7.30;3.10;;;;;;;17.52;69.49;100671.28;5012422;28;20030;-42
2022/10/01 01:39:02;;;;;;;8.80;3.75;;;;;;;17.40;70.31;100665.22;5012495;28;20018;-46
2022/10/01 01:41:34;;;;;;;8.15;2.65;;;;;;;17.23;71.13;100668.03;5003949;28;20041;-47
2022/10/01 01:44:05;;;;;;;9.05;3.13;;;;;;;16.97;72.66;100669.63;5012568;28;20057;-49
2022/10/01 01:46:35;;;;;;;8.10;4.05;;;;;;;16.76;73.25;100665.03;5011333;28;20073;-48
2022/10/01 01:49:03;;;;;;;7.57;2.95;;;;;;;16.83;73.16;100676.50;5016383;28;20021;-44
2022/10/01 01:51:44;;;;;;;7.32;3.30;;;;;;;16.65;73.89;100674.84;5010521;28;20065;-43
2022/10/01 01:54:11;;;;;;;7.25;3.60;;;;;;;16.70;74.07;100668.69;5010652;28;20386;-46
2022/10/01 01:56:37;;;;;;;8.18;3.55;;;;;;;16.60;74.45;100669.38;5008406;28;20109;-43
2022/10/01 01:59:04;;;;;;;7.43;3.90;;;;;;;16.56;74.76;100670.97;5012503;28;20116;-44
2022/10/01 02:01:42;;;;;;;8.77;3.63;;;;;;;16.46;75.25;100671.63;4992649;28;20025;-42
2022/10/01 02:04:32;;;;;;;9.45;3.53;;;;;;;16.29;75.90;100671.66;5012272;28;20050;-43
2022/10/01 02:07:25;;;;;;;10.27;3.95;;;;;;;16.23;76.06;100674.56;5004308;28;20044;-47
2022/10/01 02:10:29;;;;;;;7.13;3.72;;;;;;;16.14;76.48;100671.44;5011685;28;20423;-43
2022/10/01 02:13:21;;;;;;;6.57;4.10;;;;;;;16.10;76.71;100675.69;4999369;28;20042;-44
2022/10/01 02:16:19;;;;;;;6.82;3.53;;;;;;;16.03;77.05;100677.75;4999545;28;20026;-42
2022/10/01 02:18:55;;;;;;;10.95;4.50;;;;;;;15.88;77.83;100675.63;5011785;28;20026;-45
2022/10/01 02:21:50;;;;;;;7.05;3.90;;;;;;;15.57;79.01;100680.47;5011955;28;20534;-45
2022/10/01 02:24:27;;;;;;;6.13;4.00;;;;;;;15.61;79.19;100682.69;5002818;28;20034;-44
2022/10/01 02:26:57;;;;;;;7.63;4.13;;;;;;;15.74;78.76;100682.41;5012357;28;20442;-43
2022/10/01 02:29:23;;;;;;;7.80;4.18;;;;;;;15.70;78.74;100689.34;5011641;28;20478;-43
2022/10/01 02:31:54;;;;;;;7.75;3.88;;;;;;;15.61;79.23;100688.09;5012076;28;20068;-46
2022/10/01 02:34:23;;;;;;;12.15;4.45;;;;;;;15.64;79.24;100688.44;5027661;28;20117;-44
2022/10/01 02:36:51;;;;;;;9.18;4.47;;;;;;;15.45;80.32;100689.69;5011898;28;20030;-45
2022/10/01 02:39:20;;;;;;;7.78;4.35;;;;;;;15.37;80.39;100690.88;5020859;28;20086;-43
2022/10/01 02:41:50;;;;;;;7.25;4.47;;;;;;;15.39;80.50;100691.47;5016609;28;20447;-46
2022/10/01 02:44:23;;;;;;;7.32;4.18;;;;;;;15.43;80.37;100691.78;5015157;28;20029;-46
2022/10/01 02:46:56;;;;;;;8.88;4.50;;;;;;;15.43;80.40;100692.59;4991724;28;20022;-44
2022/10/01 02:49:22;;;;;;;8.52;4.20;;;;;;;15.48;80.20;100692.69;4991401;28;20065;-46
2022/10/01 02:51:54;;;;;;;7.30;4.53;;;;;;;15.43;80.35;100698.00;4991804;28;20105;-47
2022/10/01 02:54:38;;;;;;;9.27;4.63;;;;;;;15.36;80.98;100696.50;4991740;28;20446;-45
2022/10/01 02:57:23;;;;;;;10.20;5.20;;;;;;;15.46;80.92;100697.53;5016713;28;20025;-45
2022/10/01 02:59:58;;;;;;;10.90;4.17;;;;;;;15.34;81.32;100701.34;5011393;28;20029;-46
2022/10/01 03:02:26;;;;;;;9.18;4.30;;;;;;;15.29;81.21;100696.66;4993818;28;20030;-44
2022/10/01 03:04:55;;;;;;;7.13;4.32;;;;;;;15.44;80.93;100701.53;5003932;28;20112;-44
2022/10/01 03:07:21;;;;;;;9.10;4.63;;;;;;;15.32;81.16;100704.25;5031323;28;20469;-44
2022/10/01 03:09:48;;;;;;;8.55;4.35;;;;;;;15.22;81.52;100701.38;5030519;28;20107;-44
2022/10/01 03:12:18;;;;;;;9.55;4.30;;;;;;;15.27;80.96;100701.50;5016450;28;20018;-47
2022/10/01 03:14:47;;;;;;;7.70;3.90;;;;;;;15.18;82.20;100705.63;5010962;28;20470;-45
2022/10/01 03:17:14;;;;;;;6.70;3.63;;;;;;;15.17;82.54;100712.06;5020148;28;20177;-45
2022/10/01 03:19:41;;;;;;;5.18;3.35;;;;;;;15.27;81.81;100704.19;5017543;28;20054;-46
2022/10/01 03:22:08;;;;;;;6.90;4.50;;;;;;;15.28;81.94;100712.03;5011131;28;20109;-45
2022/10/01 03:24:34;;;;;;;8.90;5.10;;;;;;;15.11;83.19;100707.63;5017923;28;20113;-44
2022/10/01 03:27:00;;;;;;;8.98;5.35;;;;;;;15.23;82.36;100706.53;5034830;28;20029;-43
2022/10/01 03:29:27;;;;;;;6.40;4.32;;;;;;;15.10;83.02;100714.06;5034131;28;20028;-44
2022/10/01 03:31:53;;;;;;;12.60;4.90;;;;;;;14.98;83.16;100714.09;5026654;28;20482;-43
2022/10/01 03:34:20;;;;;;;13.13;5.43;;;;;;;14.98;83.09;100706.81;5014191;28;20041;-42
2022/10/01 03:36:47;;;;;;;9.30;4.78;;;;;;;15.12;82.13;100712.78;5001789;28;20034;-44
2022/10/01 03:39:13;;;;;;;7.00;4.88;;;;;;;15.09;82.48;100720.50;4994479;28;20471;-44
2022/10/01 03:41:40;;;;;;;7.95;5.20;;;;;;;15.05;82.46;100726.41;4996555;28;20034;-47
2022/10/01 03:44:06;;;;;;;9.88;5.20;;;;;;;15.05;82.86;100725.59;4994598;28;20030;-45
2022/10/01 03:46:32;;;;;;;7.40;4.43;;;;;;;14.99;82.70;100727.34;4995176;28;20049;-46
2022/10/01 03:48:59;;;;;;;8.38;4.60;;;;;;;15.01;82.63;100741.41;5013970;28;20034;-43
2022/10/01 03:51:27;;;;;;;8.68;5.18;;;;;;;15.09;82.30;100734.00;5014183;28;20482;-45
2022/10/01 03:53:57;;;;;;;8.00;5.72;;;;;;;14.94;82.90;100729.13;5007512;28;20384;-43
2022/10/01 03:56:25;;;;;;;9.25;5.63;;;;;;;14.70;84.41;100739.09;4994782;28;20030;-43
2022/10/01 03:58:51;;;;;;;10.43;5.75;;;;;;;14.89;83.63;100747.88;4994534;28;20030;-43
2022/10/01 04:01:18;;;;;;;6.38;4.72;;;;;;;14.97;83.14;100745.63;4998449;28;20062;-42
2022/10/01 04:03:44;;;;;;;8.10;5.18;;;;;;;14.85;83.42;100757.47;5013653;28;20056;-43
2022/10/01 04:06:11;;;;;;;7.45;5.05;;;;;;;14.84;83.72;100748.59;5017717;28;20029;-42
2022/10/01 04:08:38;;;;;;;9.90;5.53;;;;;;;14.82;84.00;100753.38;5017192;28;20029;-43
2022/10/01 04:11:05;;;;;;;8.48;4.93;;;;;;;14.90;84.18;100761.09;5013909;28;20033;-42
2022/10/01 04:13:33;;;;;;;10.35;5.07;;;;;;;14.91;84.44;100768.13;5012261;28;20044;-42
2022/10/01 04:16:00;;;;;;;10.73;5.45;;;;;;;14.97;83.61;100759.09;5013871;28;20033;-43
2022/10/01 04:18:27;;;;;;;8.27;5.32;;;;;;;14.84;84.19;100758.53;5013501;28;20364;-43
2022/10/01 04:20:53;;;;;;;7.20;4.72;;;;;;;15.04;83.39;100756.28;4998908;28;20037;-43
2022/10/01 04:23:21;;;;;;;9.23;4.88;;;;;;;14.93;83.23;100760.63;5004549;28;20112;-42
2022/10/01 04:25:47;;;;;;;8.68;4.28;;;;;;;14.86;83.57;100762.63;5012783;28;20056;-44
2022/10/01 04:28:14;;;;;;;6.57;4.30;;;;;;;14.75;84.19;100769.66;4994008;28;20100;-43
2022/10/01 04:30:42;;;;;;;5.30;4.30;;;;;;;14.77;83.94;100761.38;4993803;28;20048;-45
2022/10/01 04:33:12;;;;;;;5.10;4.43;;;;;;;14.65;84.67;100765.91;5021316;28;20431;-43
2022/10/01 04:35:38;;;;;;;6.75;5.13;;;;;;;14.69;84.80;100761.72;5029236;28;20496;-43
2022/10/01 04:38:07;;;;;;;5.80;4.78;;;;;;;14.64;84.95;100762.41;5011984;28;20299;-46
2022/10/01 04:40:35;;;;;;;6.57;5.30;;;;;;;14.65;85.14;100769.44;5006269;28;20453;-43
2022/10/01 04:43:03;;;;;;;7.90;5.25;;;;;;;14.63;85.24;100768.84;5013728;28;20026;-43
2022/10/01 04:45:29;;;;;;;9.13;5.82;;;;;;;14.59;85.94;100769.56;5012939;28;20116;-43
2022/10/01 04:47:57;;;;;;;9.40;5.55;;;;;;;14.56;85.83;100764.66;5012963;28;20053;-44
2022/10/01 04:50:25;;;;;;;7.90;5.32;;;;;;;14.62;85.91;100767.22;5011539;28;20026;-42
2022/10/01 04:52:52;;;;;;;5.57;4.60;;;;;;;14.67;85.21;100767.34;5003957;28;20054;-42
2022/10/01 04:55:20;;;;;;;7.30;5.20;;;;;;;14.60;85.35;100765.78;4993100;28;20034;-44
2022/10/01 04:57:46;;;;;;;7.05;5.38;;;;;;;14.54;86.21;100767.56;5007919;28;20436;-43
2022/10/01 05:00:19;;;;;;;8.85;5.85;;;;;;;14.60;85.77;100760.41;4994036;28;20061;-45
2022/10/01 05:02:47;;;;;;;7.28;5.40;;;;;;;14.62;85.58;100763.72;4993127;28;20026;-43
2022/10/01 05:05:16;;;;;;;5.85;4.90;;;;;;;14.55;85.86;100769.22;4993143;28;20521;-42
2022/10/01 05:07:42;;;;;;;4.93;4.15;;;;;;;14.59;85.78;100767.69;4993128;28;20026;-43
2022/10/01 05:10:14;;;;;;;4.82;4.03;;;;;;;14.73;85.31;100766.41;4992740;28;20026;-45
2022/10/01 05:12:41;;;;;;;4.88;3.63;;;;;;;14.60;85.40;100781.97;4993089;28;20160;-43
2022/10/01 05:15:08;;;;;;;4.38;2.97;;;;;;;14.73;84.35;100776.34;5000956;28;20437;-42
2022/10/01 05:17:34;;;;;;;5.32;2.78;;;;;;;14.69;84.46;100777.88;4993609;28;20101;-45
2022/10/01 05:20:02;;;;;;;5.18;3.35;;;;;;;14.56;85.18;100776.25;4999274;28;20113;-42
2022/10/01 05:22:28;;;;;;;7.20;3.40;;;;;;;14.57;85.23;100771.66;4992973;28;20026;-46
2022/10/01 05:24:54;;;;;;;5.20;3.47;;;;;;;14.57;85.33;100777.06;4992923;28;20026;-45
2022/10/01 05:27:21;;;;;;;4.97;3.50;;;;;;;14.65;84.95;100779.38;4992723;28;20482;-43
2022/10/01 05:29:47;;;;;;;3.78;2.85;;;;;;;14.63;84.74;100782.31;4992684;28;20048;-44
2022/10/01 05:32:14;;;;;;;5.20;3.25;;;;;;;14.64;84.37;100783.13;5007821;28;20069;-44
2022/10/01 05:34:40;;;;;;;6.15;2.90;;;;;;;14.52;84.97;100785.84;4992938;28;20084;-42
2022/10/01 05:37:07;;;;;;;5.30;3.03;;;;;;;14.62;84.84;100790.66;5002695;28;20512;-43
2022/10/01 05:39:33;;;;;;;5.25;3.58;;;;;;;14.59;84.85;100786.53;5012063;28;20490;-43
2022/10/01 05:42:01;;;;;;;4.40;3.38;;;;;;;14.54;84.64;100797.19;5011395;28;20064;-44
2022/10/01 05:44:27;;;;;;;5.45;3.83;;;;;;;14.58;84.83;100787.59;5010326;28;20072;-43
2022/10/01 05:46:54;;;;;;;3.67;3.00;;;;;;;14.60;84.43;100793.56;5011076;28;20030;-43
2022/10/01 05:49:24;;;;;;;5.00;3.65;;;;;;;14.58;84.23;100786.78;5011845;28;20038;-42
2022/10/01 05:51:50;;;;;;;6.00;3.03;;;;;;;14.62;84.36;100790.66;5011144;28;20026;-42
2022/10/01 05:54:18;;;;;;;4.60;3.38;;;;;;;14.59;85.00;100791.09;5011035;28;20033;-42
2022/10/01 05:56:45;;;;;;;3.67;3.22;;;;;;;14.54;85.11;100783.72;5011123;28;20080;-43
2022/10/01 05:59:11;;;;;;;4.95;2.83;;;;;;;14.53;84.79;100790.16;5010879;28;20429;-44
2022/10/01 06:01:37;;;;;;;4.65;2.85;;;;;;;14.61;84.23;100789.84;5011683;28;20030;-43
2022/10/01 06:04:03;;;;;;;4.97;2.90;;;;;;;14.47;84.78;100788.41;5010883;28;20054;-42
2022/10/01 06:06:29;;;;;;;4.88;2.65;;;;;;;14.64;84.10;100783.97;5010700;28;20493;-45
2022/10/01 06:08:56;;;;;;;5.20;2.58;;;;;;;14.62;84.42;100788.78;5001687;28;20038;-46
2022/10/01 06:11:23;;;;;;;3.85;2.33;;;;;;;14.47;85.13;100789.22;4992210;28;20034;-43
2022/10/01 06:13:49;;;;;;;7.60;2.80;;;;;;;14.51;85.04;100785.00;5008759;28;20029;-43
2022/10/01 06:16:16;;;;;;;5.68;2.60;;;;;;;14.58;84.85;100784.06;5011602;28;20125;-45
2022/10/01 06:18:42;;;;;;;4.03;2.45;;;;;;;14.63;84.67;100789.59;5010529;28;20034;-43
2022/10/01 06:21:09;;;;;;;3.83;2.65;;;;;;;14.64;84.47;100793.91;5010721;28;20030;-44
2022/10/01 06:23:35;;;;;;;6.72;2.80;;;;;;;14.56;85.00;100787.00;5010941;28;20036;-44
2022/10/01 06:26:04;;;;;;;5.60;3.60;;;;;;;14.64;84.64;100793.91;5012506;28;20101;-45
2022/10/01 06:28:31;;;;;;;4.60;3.05;;;;;;;14.37;85.48;100797.00;5010840;28;20037;-43
2022/10/01 06:31:01;;;;;;;5.63;3.42;;;;;;;14.34;85.84;100783.22;5011394;28;20026;-42
2022/10/01 06:33:28;;;;;;;7.20;3.42;;;;;;;14.49;85.22;100788.97;5010832;28;20038;-42
2022/10/01 06:35:54;;;;;;;4.45;3.25;;;;;;;14.53;85.17;100787.47;5011440;28;20060;-43
2022/10/01 06:38:22;;;;;;;5.20;3.50;;;;;;;14.63;84.85;100792.28;5010715;28;20117;-42
2022/10/01 06:40:58;;;;;;;5.35;3.50;;;;;;;14.68;84.07;100795.09;5011280;28;20022;-42
2022/10/01 06:43:27;;;;;;;3.75;3.15;;;;;;;14.48;84.66;100793.53;5010361;28;20034;-42
2022/10/01 06:45:54;;;;;;;5.00;3.53;;;;;;;14.56;84.12;100800.47;5011531;28;20132;-42
2022/10/01 06:48:20;;;;;;;3.42;2.92;;;;;;;14.51;84.59;100794.97;5010772;28;20026;-42
2022/10/01 06:50:51;;;;;;;3.42;3.13;;;;;;;14.48;84.94;100793.53;5011213;28;20037;-43
2022/10/01 06:53:17;;;;;;;4.72;3.00;;;;;;;14.47;85.05;100786.53;5010660;28;20049;-42
2022/10/01 06:55:45;;;;;;;3.47;3.17;;;;;;;14.38;85.63;100787.91;5011524;28;20032;-43
2022/10/01 06:58:17;;;;;;;3.42;2.95;;;;;;;14.37;85.92;100798.88;5011671;28;20057;-43
2022/10/01 07:00:44;;;;;;;3.63;2.30;;;;;;;14.37;85.43;100807.78;5015065;28;20022;-43
2022/10/01 07:03:17;;;;;;;3.58;2.38;;;;;;;14.26;85.84;100808.59;5014147;28;20038;-42
2022/10/01 07:05:44;;;;;;;2.42;2.05;;;;;;;14.29;85.46;100805.44;5015202;28;20040;-43
2022/10/01 07:08:10;;;;;;;3.10;2.42;;;;;;;14.15;86.47;100804.81;5012255;28;20109;-42
2022/10/01 07:10:37;;;;;;;2.33;1.60;;;;;;;14.29;85.84;100804.63;4993956;28;20026;-44
2022/10/01 07:13:11;;;;;;;4.45;2.03;;;;;;;14.31;85.85;100797.94;5003140;28;20042;-42
2022/10/01 07:15:37;;;;;;;3.45;2.28;;;;;;;14.31;85.35;100799.81;5014928;28;20121;-47
2022/10/01 07:18:04;;;;;;;2.65;2.00;;;;;;;14.32;85.49;100806.84;5013636;28;20483;-42
2022/10/01 07:20:34;;;;;;;3.22;1.35;;;;;;;14.40;84.75;100799.25;5014798;28;20120;-43
2022/10/01 07:23:01;;;;;;;5.97;2.70;;;;;;;14.35;84.57;100788.34;5014065;28;20041;-44
2022/10/01 07:25:28;;;;;;;3.20;2.10;;;;;;;14.36;84.58;100787.31;5014677;28;20492;-42
2022/10/01 07:27:57;;;;;;;4.25;2.10;;;;;;;14.44;84.58;100792.38;5013502;28;20034;-44
2022/10/01 07:30:24;;;;;;;3.75;2.67;;;;;;;14.51;84.75;100794.97;5014543;28;20022;-45
2022/10/01 07:32:53;;;;;;;4.72;3.28;;;;;;;14.49;84.97;100794.38;5013640;28;20049;-46
2022/10/01 07:35:20;;;;;;;3.95;3.15;;;;;;;14.22;85.46;100791.28;5013251;28;20504;-44
2022/10/01 07:37:48;;;;;;;4.95;2.78;;;;;;;14.22;85.42;100792.09;5013687;28;20033;-45
2022/10/01 07:40:17;;;;;;;3.13;2.83;;;;;;;14.37;85.03;100794.31;5014380;28;20030;-43
2022/10/01 07:42:55;;;;;;;5.32;3.25;;;;;;;14.35;85.21;100791.06;5013269;28;20088;-44
2022/10/01 07:45:22;;;;;;;3.50;2.70;;;;;;;14.35;85.55;100791.06;5014532;28;20034;-44
2022/10/01 07:47:57;;;;;;;4.03;2.83;;;;;;;14.37;85.55;100796.19;5013367;28;20544;-45
2022/10/01 07:50:25;;;;;;;4.63;2.67;;;;;;;14.42;85.38;100796.31;5014328;28;20037;-44
2022/10/01 07:52:55;;;;;;;4.07;2.95;;;;;;;14.27;85.35;100794.09;5012342;28;20038;-43
2022/10/01 07:55:25;;;;;;;4.07;3.38;;;;;;;14.34;85.72;100802.88;5013173;28;20084;-44
2022/10/01 07:57:53;;;;;;;4.18;3.00;;;;;;;14.43;85.38;100809.56;5014033;28;20033;-43
2022/10/01 08:00:21;;;;;;;4.65;3.42;;;;;;;14.37;85.66;100807.78;5012942;28;20025;-44
2022/10/01 08:02:52;;;;;;;5.88;3.97;;;;;;;14.44;85.39;100797.75;5014008;28;20033;-44
2022/10/01 08:05:22;;;;;;;4.57;3.13;;;;;;;14.51;84.77;100801.19;5012985;28;20490;-44
2022/10/01 08:07:49;;;;;;;7.05;3.88;;;;;;;14.35;85.28;100795.63;5006137;28;20062;-46
2022/10/01 08:10:17;;;;;;;4.45;3.42;;;;;;;14.40;85.42;100799.25;4996827;28;20026;-44
2022/10/01 08:12:44;;;;;;;5.85;3.85;;;;;;;14.39;86.17;100797.63;5013701;28;20052;-43
2022/10/01 08:15:13;;;;;;;3.90;3.17;;;;;;;14.41;86.17;100794.69;5013216;28;20047;-45
2022/10/01 08:17:39;;;;;;;4.07;3.20;;;;;;;14.38;86.11;100798.69;5013851;28;20104;-43
2022/10/01 08:20:07;;;;;;;5.20;2.63;;;;;;;14.29;86.53;100797.38;5012293;28;20108;-44
2022/10/01 08:22:34;;;;;;;3.15;2.53;;;;;;;14.28;85.45;100801.13;5011939;28;20320;-43
2022/10/01 08:25:00;;;;;;;3.17;2.50;;;;;;;14.25;84.88;100796.19;5013586;28;20454;-43
2022/10/01 08:27:27;;;;;;;4.35;2.88;;;;;;;14.19;85.14;100805.19;5013112;28;20080;-43
2022/10/01 08:29:54;;;;;;;5.53;2.78;;;;;;;14.14;85.74;100800.47;5013366;28;20029;-44
2022/10/01 08:32:22;;;;;;;3.72;2.83;;;;;;;14.17;85.61;100796.53;5009495;28;20018;-43
2022/10/01 08:34:48;;;;;;;3.83;2.60;;;;;;;14.14;85.85;100803.19;5013451;28;20481;-44
2022/10/01 08:37:15;;;;;;;6.25;3.47;;;;;;;14.14;86.17;100808.56;5009609;28;20034;-44
2022/10/01 08:39:41;;;;;;;4.50;3.30;;;;;;;14.07;86.15;100810.53;5013059;28;20117;-43
2022/10/01 08:42:32;;;;;;;5.03;4.05;;;;;;;14.23;85.47;100817.13;5011820;28;20424;-43
2022/10/01 08:45:04;;;;;;;5.05;3.92;;;;;;;14.33;85.24;100817.41;5009879;28;20053;-43
2022/10/01 08:47:37;;;;;;;6.63;3.80;;;;;;;14.27;85.33;100815.63;5012035;28;20437;-42
2022/10/01 08:50:34;;;;;;;7.15;4.10;;;;;;;14.26;85.20;100819.34;5013007;28;20030;-43
2022/10/01 08:53:04;;;;;;;5.90;3.53;;;;;;;14.19;85.55;100824.03;5013168;28;20118;-45
2022/10/01 08:55:36;;;;;;;4.60;2.95;;;;;;;14.35;84.75;100822.53;5011553;28;20029;-45
2022/10/01 08:58:05;;;;;;;4.30;3.63;;;;;;;14.28;85.18;100822.66;5009728;28;20110;-44
2022/10/01 09:00:38;;;;;;;3.78;2.97;;;;;;;14.30;84.71;100811.66;5012369;28;20091;-43
2022/10/01 09:03:07;;;;;;;4.10;2.72;;;;;;;14.29;84.78;100820.78;4993432;28;20034;-45
2022/10/01 09:05:50;;;;;;;4.45;2.47;;;;;;;14.32;85.06;100829.19;4992988;28;20118;-44
2022/10/01 09:08:22;;;;;;;3.42;2.80;;;;;;;14.40;84.70;100826.19;4992934;28;20057;-43
2022/10/01 09:11:06;;;;;;;4.00;2.28;;;;;;;14.43;84.36;100827.59;4993831;28;20031;-43
2022/10/01 09:14:18;;;;;;;4.30;2.42;;;;;;;14.36;85.02;100827.69;5012748;28;20026;-43
2022/10/01 09:16:49;;;;;;;3.10;2.80;;;;;;;14.31;85.88;100829.44;5011031;28;20036;-43
2022/10/01 09:19:55;;;;;;;3.65;2.95;;;;;;;14.24;85.62;100829.53;5012787;28;20029;-44
2022/10/01 09:22:36;;;;;;;3.45;3.13;;;;;;;14.15;85.85;100834.41;5011624;28;20402;-42
2022/10/01 09:25:08;;;;;;;4.47;3.63;;;;;;;14.19;85.29;100829.41;5010887;28;20112;-45
2022/10/01 09:27:37;;;;;;;5.03;3.45;;;;;;;14.14;85.91;100827.41;5012581;28;20121;-43
2022/10/01 09:30:06;;;;;;;4.80;3.17;;;;;;;14.19;86.29;100834.78;5011197;28;20050;-43
2022/10/01 09:32:55;;;;;;;4.88;3.05;;;;;;;14.22;85.27;100837.84;5011632;28;20026;-45
2022/10/01 09:35:44;;;;;;;4.25;2.95;;;;;;;14.25;85.35;100833.88;5011647;28;20057;-43
2022/10/01 09:38:23;;;;;;;4.43;2.65;;;;;;;14.06;85.63;100841.19;4992426;28;20162;-43
2022/10/01 09:40:55;;;;;;;4.18;2.33;;;;;;;14.13;85.40;100835.72;4997016;28;20069;-43
2022/10/01 09:43:37;;;;;;;4.43;2.60;;;;;;;14.23;84.55;100838.69;5012111;28;20180;-43
2022/10/01 09:46:11;;;;;;;3.35;2.28;;;;;;;14.12;84.94;100842.16;5011154;28;20022;-43
2022/10/01 09:48:59;;;;;;;3.33;1.83;;;;;;;14.24;84.90;100840.31;5011971;28;20037;-43
2022/10/01 09:51:37;;;;;;;3.75;2.47;;;;;;;14.32;84.63;100839.97;5009910;28;20375;-42
2022/10/01 09:54:26;;;;;;;2.67;1.98;;;;;;;14.29;84.72;100829.69;5011786;28;20030;-42
2022/10/01 09:56:57;;;;;;;3.05;2.65;;;;;;;14.34;84.54;100839.75;5009963;28;20109;-43
2022/10/01 09:59:49;;;;;;;3.63;2.28;;;;;;;14.33;84.52;100847.03;5011836;28;20034;-46
2022/10/01 10:02:40;;;;;;;3.75;2.42;;;;;;;14.36;84.28;100838.47;5010151;28;20120;-45
2022/10/01 10:05:15;;;;;;;2.35;2.03;;;;;;;14.25;83.83;100840.06;5011776;28;20107;-44
2022/10/01 10:07:54;;;;;;;4.15;2.70;;;;;;;14.28;83.78;100838.81;5003358;28;20038;-43
2022/10/01 10:10:47;;;;;;;2.88;2.63;;;;;;;14.34;83.64;100843.28;4996605;28;20044;-43
2022/10/01 10:13:23;;;;;;;3.53;2.67;;;;;;;14.31;84.02;100843.72;5012041;28;20034;-43
2022/10/01 10:15:52;;;;;;;3.33;3.03;;;;;;;14.28;84.21;100836.13;5009349;28;20497;-43
2022/10/01 10:18:29;;;;;;;4.30;2.53;;;;;;;14.25;84.09;100839.25;5011514;28;20052;-44
2022/10/01 10:20:58;;;;;;;4.45;2.55;;;;;;;14.25;84.16;100844.63;5010074;28;20049;-43
2022/10/01 10:23:25;;;;;;;3.50;2.88;;;;;;;14.30;84.08;100839.38;5011767;28;20442;-43
2022/10/01 10:26:01;;;;;;;2.92;2.60;;;;;;;14.16;83.97;100840.66;5010287;28;20030;-44
2022/10/01 10:28:40;;;;;;;3.70;2.80;;;;;;;14.26;84.03;100838.19;5011540;28;20395;-43
2022/10/01 10:31:27;;;;;;;3.70;2.47;;;;;;;14.31;84.14;100838.34;5010942;28;20065;-46
2022/10/01 10:34:11;;;;;;;2.78;2.42;;;;;;;14.16;84.89;100835.28;5015654;28;20037;-43
2022/10/01 10:36:38;;;;;;;2.25;2.05;;;;;;;14.21;83.97;100832.69;5014642;28;20030;-46
2022/10/01 10:39:14;;;;;;;2.80;2.05;;;;;;;14.24;83.53;100838.44;5015368;28;20026;-43
2022/10/01 10:41:46;;;;;;;3.70;2.13;;;;;;;14.26;83.79;100847.09;5012926;28;20485;-45
2022/10/01 10:44:15;;;;;;;4.38;2.53;;;;;;;14.20;84.20;100839.94;5015447;28;20054;-43
2022/10/01 10:46:44;;;;;;;2.53;2.13;;;;;;;14.17;84.64;100842.28;5005288;28;20064;-43
2022/10/01 10:49:28;;;;;;;4.78;2.40;;;;;;;14.33;84.08;100838.13;4995356;28;20033;-43
2022/10/01 10:51:59;;;;;;;3.80;2.38;;;;;;;14.34;83.64;100843.28;4996423;28;20058;-45
2022/10/01 10:54:40;;;;;;;2.70;2.35;;;;;;;14.27;83.97;100842.56;4995552;28;20038;-45
2022/10/01 10:57:29;;;;;;;2.38;1.92;;;;;;;14.24;84.01;100843.00;4992799;28;20027;-42
2022/10/01 11:00:11;;;;;;;4.88;2.10;;;;;;;14.33;83.85;100846.19;5001097;28;20034;-44
2022/10/01 11:02:41;;;;;;;2.50;2.00;;;;;;;14.31;83.75;100849.09;5015308;28;20041;-43
2022/10/01 11:05:21;;;;;;;3.42;2.08;;;;;;;14.26;84.24;100843.59;5007961;28;20053;-43
2022/10/01 11:07:53;;;;;;;2.80;2.30;;;;;;;14.33;84.18;100835.44;5015388;28;20095;-47
2022/10/01 11:10:44;;;;;;;3.05;2.17;;;;;;;14.41;84.31;100845.84;5001235;28;20471;-42
2022/10/01 11:13:31;;;;;;;2.63;2.15;;;;;;;14.37;83.73;100852.75;4994797;28;20045;-43
2022/10/01 11:16:31;;;;;;;2.28;2.08;;;;;;;14.30;83.27;100849.34;4994196;28;20033;-44
2022/10/01 11:19:24;;;;;;;3.35;2.20;;;;;;;14.27;83.23;100847.94;4992901;28;20033;-46
2022/10/01 11:21:59;;;;;;;1.67;1.52;;;;;;;14.26;83.04;100848.97;5005263;28;20084;-43
2022/10/01 11:24:59;;;;;;;1.90;1.63;;;;;;;14.21;83.03;100847.00;5003545;28;20022;-43
2022/10/01 11:27:36;;;;;;;3.72;2.22;;;;;;;14.35;82.97;100852.97;4994911;28;20561;-43
2022/10/01 11:30:25;;;;;;;2.42;2.00;;;;;;;14.26;83.58;100840.91;4993029;28;20065;-43
2022/10/01 11:33:26;;;;;;;4.82;2.60;;;;;;;14.22;83.69;100855.88;4995368;28;20053;-43
2022/10/01 11:36:16;;;;;;;2.50;2.28;;;;;;;14.27;83.59;100847.94;4991929;28;20042;-43
2022/10/01 11:38:55;;;;;;;5.03;2.97;;;;;;;14.37;83.19;100852.75;4994610;28;20065;-45
2022/10/01 11:41:42;;;;;;;4.05;3.03;;;;;;;14.23;83.75;100857.53;4994623;28;20034;-43
2022/10/01 11:44:34;;;;;;;4.60;3.55;;;;;;;14.16;83.28;100862.19;4994000;28;20034;-43
2022/10/01 11:47:12;;;;;;;4.10;3.60;;;;;;;14.15;83.70;100863.22;4994293;28;20027;-44